Pagrindinis puslapis
METAR-TAF:

METAR-TAF

Oro uostai :

Rosarijas, Argentina

platuma: 32-55S, ilguma: 060-47W, Aukštis: 25 m

Dabartinis oras

Ataskaita buvo paskelbta 12 minutes, ne 20:00 UTC
Vėjas 13 kt iš Rytų/Šiaurės Rytų
Temperatūra 21°C
Drėgmė 30%
Slėgis 1025 hPa
Matomumas 10 km arba daugiau
nėra debesų žemiau 1500 m ir nėra kamuolinių lietaus debesų

METAR: SAAR 222000Z 07013KT CAVOK 21/03 Q1025

Laikas: 17:12 (20:12 UTC)

Prognozė

Ataskaita buvo paskelbta 3 valandos ir 12 minutes, ne 17:00 UTC
Prognozė galioja nuo 22 metu 18 UTC su 23 metu 18 UTC
Vėjas 15 kt iš Šiaurės Rytų
Matomumas 10 km arba daugiau
nėra debesų žemiau 1500 m ir nėra kamuolinių lietaus debesų
Tapsmas
nuo 23 metu 05 UTC su 23 metu 07 UTC
Vėjas 10 kt iš Šiaurės Rytų
Tapsmas
nuo 23 metu 12 UTC su 23 metu 14 UTC
Vėjas 15 kt iš Šiaurės/Šiaurės Rytų

TAF: SAAR 221700Z 2218/2318 05015KT CAVOK TX24/2318Z TN10/2311Z BECMG 2305/2307 05010KT BECMG 2312/2314 02015KT

Orai ataskaitas ir orų prognozės (METAR, TAF).

turimą stotys yra geltonos ir raudonos taškus žemėlapyje.

Perkelti pele per norėdami pamatyti stoties vardą.

Tada spustelėkite, norėdami matyti oro stebėjimo ir prognozės.

Norėdami pakeisti žemėlapį: spustelėkite ant žalios mygtukų su juodo kryžiaus žemyn,; žalią mygtuką su brūkšneliu, jei norite nutolinti; arba žalių rodyklių gretimoms žemėlapius.


METAR-TAF: